Time;durP1;ratioP1;P1;durP2;ratioP2;P2;SDS_P1;SDS_P2;PMS_P1;PMS_P2;Temp;Humidity;BMP_temperature;BMP_pressure;BME280_temperature;BME280_humidity;BME280_pressure;Samples;Min_cycle;Max_cycle;Signal;HPM_P1;HPM_P2
2023/10/24 00:00:49;;;;;;;47.55;23.20;;;9.20;99.90;;;;;;4978335;28;20050;-76
2023/10/24 00:03:15;;;;;;;45.80;24.33;;;9.30;99.90;;;;;;4965077;28;20050;-79
2023/10/24 00:05:44;;;;;;;49.78;24.63;;;10.10;99.90;;;;;;4974194;28;20052;-77
2023/10/24 00:08:13;;;;;;;49.05;24.13;;;9.20;99.90;;;;;;4974549;28;20495;-75
2023/10/24 00:10:41;;;;;;;49.33;23.98;;;9.20;99.90;;;;;;4990530;28;20060;-79
2023/10/24 00:13:18;;;;;;;50.65;23.02;;;9.20;99.90;;;;;;4987363;28;20496;-80
2023/10/24 00:15:46;;;;;;;45.67;22.30;;;9.20;99.90;;;;;;4963619;28;20680;-82
2023/10/24 00:18:14;;;;;;;49.35;23.60;;;9.30;99.90;;;;;;4960862;28;20608;-76
2023/10/24 00:20:43;;;;;;;46.53;23.83;;;9.30;99.90;;;;;;4972154;28;20359;-79
2023/10/24 00:23:29;;;;;;;49.22;23.85;;;10.00;99.90;;;;;;4989645;28;20342;-78
2023/10/24 00:25:57;;;;;;;44.35;23.80;;;9.30;99.90;;;;;;4993079;28;20143;-74
2023/10/24 00:28:26;;;;;;;43.58;22.80;;;9.20;99.90;;;;;;4990088;28;20938;-75
2023/10/24 00:30:52;;;;;;;47.35;24.25;;;9.20;99.90;;;;;;4972618;28;20062;-77
2023/10/24 00:33:38;;;;;;;50.05;24.80;;;9.20;99.90;;;;;;5002126;28;20054;-77
2023/10/24 00:36:07;;;;;;;51.92;24.75;;;9.20;99.90;;;;;;4990277;28;20051;-82
2023/10/24 00:38:43;;;;;;;56.60;26.08;;;9.20;99.90;;;;;;4960421;28;20061;-77
2023/10/24 00:41:11;;;;;;;60.55;26.42;;;9.20;99.90;;;;;;4977741;28;20121;-75
2023/10/24 00:43:37;;;;;;;69.70;27.77;;;9.70;99.90;;;;;;4976918;28;20133;-75
2023/10/24 00:46:03;;;;;;;70.28;29.17;;;9.20;99.90;;;;;;4967795;28;20153;-75
2023/10/24 00:48:30;;;;;;;68.00;28.63;;;9.20;99.90;;;;;;4980023;28;20061;-80
2023/10/24 00:50:56;;;;;;;79.10;29.25;;;9.20;99.90;;;;;;4962234;28;20858;-74
2023/10/24 00:53:22;;;;;;;77.72;28.65;;;9.20;99.90;;;;;;4985180;28;20820;-79
2023/10/24 00:55:49;;;;;;;78.80;31.08;;;9.20;99.90;;;;;;4974767;28;20061;-76
2023/10/24 00:58:15;;;;;;;86.72;30.67;;;9.20;99.90;;;;;;5008112;28;20085;-74
2023/10/24 01:00:43;;;;;;;81.03;30.67;;;9.30;99.90;;;;;;4992270;28;20509;-75
2023/10/24 01:03:09;;;;;;;77.78;29.48;;;9.60;99.90;;;;;;4985600;28;20057;-75
2023/10/24 01:05:36;;;;;;;68.90;29.02;;;9.20;99.90;;;;;;4963369;28;20058;-74
2023/10/24 01:08:01;;;;;;;76.95;30.20;;;9.90;99.90;;;;;;4979268;28;20555;-77
2023/10/24 01:10:27;;;;;;;97.57;32.80;;;10.40;99.90;;;;;;4947153;28;20054;-77
2023/10/24 01:12:53;;;;;;;109.78;34.17;;;9.70;99.90;;;;;;4962876;28;20081;-76
2023/10/24 01:15:19;;;;;;;93.03;32.28;;;9.20;99.90;;;;;;4963937;28;20047;-77
2023/10/24 01:17:52;;;;;;;107.20;33.45;;;8.90;99.90;;;;;;4983801;28;20054;-76
2023/10/24 01:20:21;;;;;;;125.88;35.38;;;9.50;99.90;;;;;;4983131;28;20053;-77
2023/10/24 01:22:47;;;;;;;103.45;33.25;;;9.30;99.90;;;;;;4982547;28;20054;-80
2023/10/24 01:25:14;;;;;;;111.82;35.35;;;9.30;99.90;;;;;;4965635;28;20510;-76
2023/10/24 01:27:42;;;;;;;91.93;31.65;;;9.30;99.90;;;;;;4981703;28;20065;-76
2023/10/24 01:30:10;;;;;;;91.10;32.10;;;9.30;99.90;;;;;;4948816;28;20934;-77
2023/10/24 01:32:35;;;;;;;111.43;33.70;;;9.30;99.90;;;;;;4980578;28;20046;-74
2023/10/24 01:35:01;;;;;;;112.45;35.60;;;9.30;99.90;;;;;;4980546;28;20440;-78
2023/10/24 01:37:27;;;;;;;101.05;34.05;;;9.40;99.90;;;;;;4980576;28;20073;-76
2023/10/24 01:39:52;;;;;;;106.88;36.60;;;9.40;99.90;;;;;;4965094;28;20042;-75
2023/10/24 01:42:18;;;;;;;101.10;33.78;;;9.40;99.90;;;;;;4979977;28;20588;-75
2023/10/24 01:44:44;;;;;;;107.82;36.17;;;9.40;99.90;;;;;;4964270;28;20116;-75
2023/10/24 01:47:10;;;;;;;115.65;34.70;;;9.50;99.90;;;;;;4981357;28;20148;-79
2023/10/24 01:49:35;;;;;;;101.10;34.53;;;9.80;99.90;;;;;;4965780;28;20050;-78
2023/10/24 01:52:01;;;;;;;114.95;35.92;;;9.50;99.90;;;;;;4981483;28;20057;-78
2023/10/24 01:54:27;;;;;;;99.20;33.60;;;9.50;99.90;;;;;;4981204;28;20148;-78
2023/10/24 01:56:52;;;;;;;116.63;35.25;;;9.50;99.90;;;;;;4980065;28;20051;-75
2023/10/24 01:59:21;;;;;;;92.75;32.72;;;9.50;99.90;;;;;;4980628;28;20483;-75
2023/10/24 02:01:47;;;;;;;99.07;33.83;;;9.90;99.90;;;;;;4964331;28;20049;-79
2023/10/24 02:04:12;;;;;;;103.25;35.60;;;9.60;99.90;;;;;;4963151;28;20058;-77
2023/10/24 02:06:38;;;;;;;98.28;33.53;;;9.60;99.90;;;;;;4964131;28;20060;-74
2023/10/24 02:09:04;;;;;;;94.15;33.47;;;9.60;99.90;;;;;;4963463;28;20200;-73
2023/10/24 02:11:29;;;;;;;98.07;34.55;;;9.60;99.90;;;;;;4979453;28;20069;-79
2023/10/24 02:13:55;;;;;;;111.35;36.15;;;10.20;99.90;;;;;;4962457;28;20038;-76
2023/10/24 02:16:23;;;;;;;125.70;36.75;;;9.70;99.90;;;;;;4977973;28;20097;-75
2023/10/24 02:18:49;;;;;;;111.82;35.17;;;10.00;99.90;;;;;;4944970;28;20042;-74
2023/10/24 02:21:15;;;;;;;105.63;35.28;;;9.70;99.90;;;;;;4981376;28;20548;-78
2023/10/24 02:23:40;;;;;;;94.60;34.47;;;9.70;99.90;;;;;;4965200;28;20042;-76
2023/10/24 02:26:13;;;;;;;123.22;37.40;;;9.70;99.90;;;;;;4964631;28;20046;-74
2023/10/24 02:28:39;;;;;;;109.18;35.75;;;9.80;99.90;;;;;;4964641;28;20162;-76
2023/10/24 02:31:05;;;;;;;94.45;33.70;;;10.00;99.90;;;;;;4981465;28;20355;-76
2023/10/24 02:33:30;;;;;;;95.30;33.65;;;9.80;99.90;;;;;;4981379;28;20039;-77
2023/10/24 02:36:15;;;;;;;83.28;30.33;;;9.80;99.90;;;;;;4981060;28;20117;-75
2023/10/24 02:38:42;;;;;;;91.30;31.92;;;9.80;99.90;;;;;;4964096;28;20053;-76
2023/10/24 02:41:11;;;;;;;117.63;35.92;;;9.80;99.90;;;;;;4980323;28;20046;-74
2023/10/24 02:43:36;;;;;;;101.85;34.75;;;10.00;99.90;;;;;;4980424;28;20049;-76
2023/10/24 02:46:05;;;;;;;95.13;33.63;;;10.10;99.90;;;;;;4979078;28;20050;-76
2023/10/24 02:48:31;;;;;;;96.43;35.65;;;9.90;99.90;;;;;;4978773;28;20055;-79
2023/10/24 02:50:57;;;;;;;94.55;33.42;;;9.90;99.90;;;;;;4977408;28;20887;-75
2023/10/24 02:53:24;;;;;;;107.72;36.00;;;10.00;99.90;;;;;;4961172;28;20050;-77
2023/10/24 02:55:51;;;;;;;82.43;34.80;;;9.90;99.90;;;;;;4963630;28;20109;-76
2023/10/24 02:58:17;;;;;;;99.20;35.45;;;10.00;99.90;;;;;;4980366;28;20739;-78
2023/10/24 03:00:45;;;;;;;102.70;36.42;;;10.00;99.90;;;;;;4980079;28;20504;-78
2023/10/24 03:03:11;;;;;;;98.88;36.63;;;10.10;99.90;;;;;;4981769;28;20061;-79
2023/10/24 03:05:37;;;;;;;91.63;36.05;;;10.90;99.90;;;;;;4971666;28;20057;-79
2023/10/24 03:08:04;;;;;;;114.03;37.95;;;10.00;99.90;;;;;;4986415;28;20054;-80
2023/10/24 03:10:37;;;;;;;102.45;37.40;;;10.00;99.90;;;;;;4980837;28;20066;-78
2023/10/24 03:13:06;;;;;;;105.90;37.28;;;10.00;99.90;;;;;;4963134;28;20141;-76
2023/10/24 03:15:35;;;;;;;114.90;37.55;;;10.10;99.90;;;;;;4963608;28;20050;-76
2023/10/24 03:18:01;;;;;;;92.75;37.05;;;10.10;99.90;;;;;;4980274;28;20042;-79
2023/10/24 03:20:30;;;;;;;118.07;38.83;;;10.10;99.90;;;;;;4963606;28;20099;-78
2023/10/24 03:22:55;;;;;;;129.05;39.03;;;10.10;99.90;;;;;;4979899;28;20081;-81
2023/10/24 03:25:24;;;;;;;109.95;40.60;;;10.10;99.90;;;;;;4967459;28;20077;-78
2023/10/24 03:27:52;;;;;;;87.60;36.03;;;10.10;99.90;;;;;;4946778;28;20116;-81
2023/10/24 03:30:18;;;;;;;149.48;42.08;;;10.10;99.90;;;;;;4963304;28;20054;-80
2023/10/24 03:32:43;;;;;;;116.03;41.25;;;10.20;99.90;;;;;;4962622;28;20714;-81
2023/10/24 03:35:09;;;;;;;125.15;41.80;;;10.10;99.90;;;;;;4962791;28;20053;-78
2023/10/24 03:37:35;;;;;;;90.32;36.85;;;10.10;99.90;;;;;;4963268;28;20050;-77
2023/10/24 03:40:02;;;;;;;115.53;40.67;;;10.20;99.90;;;;;;4981072;28;20050;-78
2023/10/24 03:42:30;;;;;;;115.57;38.80;;;10.20;99.90;;;;;;4963327;28;20155;-78
2023/10/24 03:44:56;;;;;;;117.40;40.85;;;10.20;99.90;;;;;;4963217;28;20054;-79
2023/10/24 03:47:21;;;;;;;176.20;46.88;;;10.20;99.90;;;;;;4979920;28;20403;-79
2023/10/24 03:49:47;;;;;;;115.22;40.47;;;10.20;99.90;;;;;;4979717;28;20157;-79
2023/10/24 03:52:13;;;;;;;129.82;42.80;;;10.20;99.90;;;;;;4967193;28;20046;-79
2023/10/24 03:54:39;;;;;;;119.68;42.25;;;10.20;99.90;;;;;;4964184;28;20081;-78
2023/10/24 03:57:04;;;;;;;158.15;46.00;;;13.10;99.90;;;;;;4963626;28;20100;-79
2023/10/24 03:59:31;;;;;;;169.40;45.35;;;10.40;99.90;;;;;;4980663;28;20076;-79
2023/10/24 04:01:56;;;;;;;114.18;40.47;;;10.30;99.90;;;;;;4971850;28;20050;-80
2023/10/24 04:04:22;;;;;;;111.43;39.78;;;10.30;99.90;;;;;;4984222;28;20597;-78
2023/10/24 04:06:48;;;;;;;84.68;34.47;;;10.30;99.90;;;;;;5010690;28;20565;-78
2023/10/24 04:09:14;;;;;;;160.95;47.15;;;10.40;99.90;;;;;;4988356;28;20061;-79
2023/10/24 04:11:39;;;;;;;92.28;37.13;;;10.90;99.90;;;;;;4973950;28;20544;-79
2023/10/24 04:14:06;;;;;;;109.65;41.15;;;10.30;99.90;;;;;;4978709;28;20049;-78
2023/10/24 04:16:32;;;;;;;106.78;39.00;;;10.40;99.90;;;;;;4977286;28;20053;-79
2023/10/24 04:18:58;;;;;;;151.43;47.30;;;10.40;99.90;;;;;;4993098;28;20046;-80
2023/10/24 04:21:24;;;;;;;104.70;40.03;;;10.40;99.90;;;;;;4963701;28;20053;-79
2023/10/24 04:23:52;;;;;;;146.10;45.55;;;10.40;99.90;;;;;;4979026;28;20053;-80
2023/10/24 04:26:18;;;;;;;103.10;41.33;;;10.90;99.90;;;;;;4990407;28;20053;-79
2023/10/24 04:28:44;;;;;;;247.02;52.97;;;10.40;99.90;;;;;;4985984;28;20058;-77
2023/10/24 04:31:12;;;;;;;147.48;46.40;;;10.40;99.90;;;;;;4993108;28;20112;-78
2023/10/24 04:33:39;;;;;;;118.65;44.38;;;10.50;99.90;;;;;;4984454;28;20056;-78
2023/10/24 04:36:10;;;;;;;156.60;47.50;;;10.40;99.90;;;;;;5004756;28;20504;-77
2023/10/24 04:38:36;;;;;;;249.88;56.45;;;10.50;99.90;;;;;;5005487;28;20048;-78
2023/10/24 04:41:02;;;;;;;157.48;48.72;;;10.50;99.90;;;;;;4980892;28;20054;-78
2023/10/24 04:43:27;;;;;;;203.68;51.13;;;12.30;99.90;;;;;;4997255;28;20050;-80
2023/10/24 04:45:53;;;;;;;185.13;50.17;;;10.80;99.90;;;;;;4988667;28;20046;-78
2023/10/24 04:48:19;;;;;;;160.10;47.33;;;10.50;99.90;;;;;;4981214;28;20559;-78
2023/10/24 04:50:45;;;;;;;233.60;53.15;;;10.50;99.90;;;;;;4986015;28;20199;-79
2023/10/24 04:53:10;;;;;;;102.38;41.88;;;10.50;99.90;;;;;;4983984;28;20081;-79
2023/10/24 04:55:36;;;;;;;230.95;55.08;;;10.50;99.90;;;;;;4984127;28;20054;-79
2023/10/24 04:58:03;;;;;;;164.88;47.70;;;10.50;99.90;;;;;;4984923;28;20034;-78
2023/10/24 05:00:28;;;;;;;146.23;47.63;;;10.50;99.90;;;;;;4996966;28;20506;-80
2023/10/24 05:02:54;;;;;;;182.73;51.55;;;10.50;99.90;;;;;;4997565;28;20042;-78
2023/10/24 05:05:20;;;;;;;118.40;42.83;;;10.50;99.90;;;;;;4984718;28;20132;-81
2023/10/24 05:07:45;;;;;;;130.30;46.10;;;10.50;99.90;;;;;;4989719;28;20104;-78
2023/10/24 05:10:11;;;;;;;98.45;41.85;;;10.60;99.90;;;;;;4967270;28;20571;-80
2023/10/24 05:12:37;;;;;;;133.82;45.65;;;10.50;99.90;;;;;;4962914;28;20050;-79
2023/10/24 05:15:04;;;;;;;134.30;46.63;;;10.50;99.90;;;;;;4991721;28;20745;-77
2023/10/24 05:17:30;;;;;;;116.72;43.38;;;10.50;99.90;;;;;;4964224;28;20137;-78
2023/10/24 05:20:02;;;;;;;81.03;37.47;;;10.50;99.90;;;;;;4981603;28;20054;-78
2023/10/24 05:22:28;;;;;;;79.97;37.35;;;10.70;99.90;;;;;;4961650;28;20046;-76
2023/10/24 05:24:54;;;;;;;69.05;36.85;;;10.50;99.90;;;;;;4977579;28;20050;-77
2023/10/24 05:27:20;;;;;;;238.93;53.78;;;10.50;99.90;;;;;;4960623;28;20165;-78
2023/10/24 05:29:48;;;;;;;91.20;39.83;;;10.50;99.90;;;;;;4959887;28;20113;-77
2023/10/24 05:32:14;;;;;;;214.32;49.85;;;11.20;99.90;;;;;;4959898;28;20057;-77
2023/10/24 05:34:40;;;;;;;138.82;42.00;;;10.50;99.90;;;;;;4961413;28;20051;-77
2023/10/24 05:37:05;;;;;;;204.60;50.28;;;10.40;99.90;;;;;;4987406;28;20758;-78
2023/10/24 05:39:31;;;;;;;99.20;36.50;;;10.30;99.90;;;;;;4976998;28;20054;-79
2023/10/24 05:42:00;;;;;;;203.77;47.50;;;10.30;99.90;;;;;;4984619;28;20053;-76
2023/10/24 05:44:26;;;;;;;89.70;35.78;;;10.20;99.90;;;;;;4968017;28;20046;-77
2023/10/24 05:46:53;;;;;;;112.43;38.03;;;10.20;99.90;;;;;;4959468;28;20066;-78
2023/10/24 05:49:19;;;;;;;100.65;36.42;;;10.20;99.90;;;;;;4975696;28;20137;-77
2023/10/24 05:51:45;;;;;;;108.40;36.85;;;10.10;99.90;;;;;;4961605;28;20896;-76
2023/10/24 05:54:11;;;;;;;99.25;34.75;;;10.50;99.90;;;;;;4960527;28;20046;-76
2023/10/24 05:56:36;;;;;;;131.05;38.08;;;10.00;99.90;;;;;;4970980;28;20545;-78
2023/10/24 05:59:02;;;;;;;136.05;35.78;;;10.40;99.90;;;;;;4961571;28;20054;-78
2023/10/24 06:01:28;;;;;;;78.85;31.70;;;10.00;99.90;;;;;;4963491;28;20058;-77
2023/10/24 06:03:54;;;;;;;63.30;28.77;;;10.00;99.90;;;;;;4984302;28;20061;-76
2023/10/24 06:06:20;;;;;;;53.58;27.90;;;10.00;99.90;;;;;;4964407;28;20054;-79
2023/10/24 06:08:48;;;;;;;93.70;32.78;;;9.90;99.90;;;;;;4968899;28;20151;-80
2023/10/24 06:11:15;;;;;;;111.32;34.88;;;10.20;99.90;;;;;;4967291;28;20191;-79
2023/10/24 06:13:41;;;;;;;65.90;28.30;;;9.90;99.90;;;;;;4971286;28;20065;-75
2023/10/24 06:16:11;;;;;;;86.43;30.80;;;10.00;99.90;;;;;;4934924;28;20474;-78
2023/10/24 06:18:55;;;;;;;41.40;24.48;;;10.00;99.90;;;;;;4940616;28;20085;-77
2023/10/24 06:21:21;;;;;;;53.50;25.20;;;10.00;99.90;;;;;;4952794;28;20109;-76
2023/10/24 06:23:47;;;;;;;62.30;26.88;;;9.90;99.90;;;;;;4953685;28;20046;-78
2023/10/24 06:26:14;;;;;;;55.60;23.65;;;10.50;99.90;;;;;;4944414;28;20508;-81
2023/10/24 06:28:44;;;;;;;92.90;30.92;;;10.00;99.90;;;;;;4951904;28;20549;-75
2023/10/24 06:31:10;;;;;;;79.30;27.55;;;10.00;99.90;;;;;;4940670;28;20061;-77
2023/10/24 06:33:37;;;;;;;119.25;33.70;;;10.00;99.90;;;;;;4932456;28;20062;-78
2023/10/24 06:36:05;;;;;;;68.18;26.40;;;10.10;99.90;;;;;;4938951;28;20062;-78
2023/10/24 06:38:31;;;;;;;59.22;25.92;;;10.10;99.90;;;;;;4958393;28;20058;-78
2023/10/24 06:40:58;;;;;;;53.42;26.15;;;10.10;99.90;;;;;;4952513;28;20124;-75
2023/10/24 06:43:25;;;;;;;47.58;23.25;;;10.10;99.90;;;;;;4938914;28;20157;-77
2023/10/24 06:45:51;;;;;;;82.05;28.55;;;10.10;99.90;;;;;;4937887;28;20062;-77
2023/10/24 06:48:17;;;;;;;87.65;28.85;;;10.50;99.90;;;;;;4937243;28;20054;-76
2023/10/24 06:50:42;;;;;;;99.93;30.63;;;10.20;99.90;;;;;;4920702;28;20050;-78
2023/10/24 06:53:09;;;;;;;55.97;24.90;;;10.40;99.90;;;;;;4939584;28;20061;-75
2023/10/24 06:55:35;;;;;;;45.13;22.92;;;10.20;99.90;;;;;;4944524;28;20061;-77
2023/10/24 06:58:03;;;;;;;94.05;30.23;;;10.20;99.90;;;;;;4957571;28;20057;-76
2023/10/24 07:00:29;;;;;;;68.57;26.77;;;10.20;99.90;;;;;;4943507;28;20062;-76
2023/10/24 07:02:54;;;;;;;64.47;25.98;;;10.20;99.90;;;;;;4951971;28;20132;-76
2023/10/24 07:05:21;;;;;;;52.53;23.85;;;10.30;99.90;;;;;;4972519;28;20121;-77
2023/10/24 07:07:47;;;;;;;138.93;33.88;;;10.20;99.90;;;;;;4982212;28;20054;-75
2023/10/24 07:10:13;;;;;;;71.40;27.42;;;10.30;99.90;;;;;;4968036;28;20054;-75
2023/10/24 07:12:39;;;;;;;93.35;29.70;;;10.30;99.90;;;;;;4964868;28;20054;-76
2023/10/24 07:15:05;;;;;;;76.93;26.48;;;10.30;99.90;;;;;;4979279;28;20052;-77
2023/10/24 07:17:31;;;;;;;58.03;25.13;;;10.30;99.90;;;;;;4962894;28;20061;-76
2023/10/24 07:19:59;;;;;;;73.85;26.30;;;10.30;99.90;;;;;;4980423;28;20543;-77
2023/10/24 07:22:25;;;;;;;70.47;25.98;;;10.40;99.90;;;;;;4979801;28;20116;-76
2023/10/24 07:24:51;;;;;;;70.43;25.38;;;10.40;99.90;;;;;;4965104;28;20050;-75
2023/10/24 07:27:16;;;;;;;70.20;24.92;;;10.40;99.90;;;;;;4963566;28;20053;-77
2023/10/24 07:29:42;;;;;;;84.10;26.63;;;10.40;99.90;;;;;;4962862;28;20053;-77
2023/10/24 07:32:08;;;;;;;54.15;23.13;;;10.40;99.90;;;;;;4980058;28;20046;-76
2023/10/24 07:34:34;;;;;;;62.72;24.95;;;10.40;99.90;;;;;;4978132;28;20121;-75
2023/10/24 07:37:00;;;;;;;99.45;29.20;;;10.40;99.90;;;;;;4978147;28;20817;-76
2023/10/24 07:39:26;;;;;;;107.15;29.42;;;10.50;99.90;;;;;;4962877;28;20129;-78
2023/10/24 07:41:52;;;;;;;51.22;22.00;;;10.50;99.90;;;;;;4962694;28;20434;-74
2023/10/24 07:44:18;;;;;;;87.60;27.10;;;10.50;99.90;;;;;;4962795;28;20046;-75
2023/10/24 07:46:44;;;;;;;67.43;25.13;;;10.50;99.90;;;;;;4946701;28;20863;-76
2023/10/24 07:49:11;;;;;;;57.58;24.65;;;10.60;99.90;;;;;;4946309;28;20847;-75
2023/10/24 07:51:39;;;;;;;74.90;25.95;;;10.60;99.90;;;;;;4962083;28;20054;-77
2023/10/24 07:54:29;;;;;;;60.28;24.15;;;10.60;99.90;;;;;;4970270;28;20802;-77
2023/10/24 07:56:55;;;;;;;54.55;22.73;;;10.70;99.90;;;;;;4943301;28;20050;-78
2023/10/24 07:59:21;;;;;;;43.22;21.25;;;10.70;99.90;;;;;;4948068;28;20566;-75
2023/10/24 08:01:57;;;;;;;46.72;20.83;;;10.70;99.90;;;;;;4948504;28;20149;-79
2023/10/24 08:04:32;;;;;;;47.92;21.52;;;10.70;99.90;;;;;;4951600;28;20054;-79
2023/10/24 08:07:07;;;;;;;86.68;27.23;;;10.70;99.90;;;;;;4962115;28;20085;-79
2023/10/24 08:09:35;;;;;;;45.75;21.48;;;10.70;99.90;;;;;;4960751;28;20089;-82
2023/10/24 08:12:00;;;;;;;60.67;23.27;;;10.70;99.90;;;;;;4960566;28;20056;-81
2023/10/24 08:14:26;;;;;;;53.40;23.25;;;10.70;99.90;;;;;;4944575;28;20046;-74
2023/10/24 08:16:52;;;;;;;50.95;22.55;;;10.80;99.90;;;;;;4959407;28;20112;-77
2023/10/24 08:19:17;;;;;;;81.25;25.48;;;10.80;99.90;;;;;;4959721;28;20136;-75
2023/10/24 08:21:43;;;;;;;46.60;21.20;;;10.80;99.90;;;;;;4959281;28;20054;-79
2023/10/24 08:24:12;;;;;;;53.28;22.30;;;10.80;99.90;;;;;;4976326;28;20168;-78
2023/10/24 08:26:37;;;;;;;58.25;23.40;;;10.90;99.90;;;;;;4958982;28;20136;-82
2023/10/24 08:29:03;;;;;;;50.00;21.48;;;10.80;99.90;;;;;;4959646;28;20165;-77
2023/10/24 08:31:29;;;;;;;103.93;28.67;;;10.90;99.90;;;;;;4966210;28;20065;-80
2023/10/24 08:33:55;;;;;;;67.60;24.10;;;10.90;99.90;;;;;;4976247;28;20050;-80
2023/10/24 08:36:21;;;;;;;48.75;22.20;;;10.20;99.90;;;;;;4961765;28;20188;-76
2023/10/24 08:38:46;;;;;;;64.78;22.75;;;10.80;99.90;;;;;;4981291;28;20050;-82
2023/10/24 08:41:30;;;;;;;43.67;20.63;;;10.80;99.90;;;;;;4979038;28;20077;-76
2023/10/24 08:43:56;;;;;;;69.90;23.92;;;10.80;99.90;;;;;;4947218;28;20057;-78
2023/10/24 08:46:22;;;;;;;63.03;24.15;;;10.80;99.90;;;;;;4978996;28;20062;-80
2023/10/24 08:48:50;;;;;;;54.58;22.65;;;9.70;99.90;;;;;;4979301;28;20129;-78
2023/10/24 08:51:16;;;;;;;51.78;21.80;;;10.80;99.90;;;;;;4978520;28;20484;-75
2023/10/24 08:53:42;;;;;;;72.38;24.20;;;10.80;99.90;;;;;;4978084;28;20057;-79
2023/10/24 08:56:12;;;;;;;50.47;22.30;;;10.80;99.90;;;;;;4945414;28;20050;-74
2023/10/24 08:58:41;;;;;;;49.40;21.55;;;10.80;99.90;;;;;;4976949;28;20053;-84
2023/10/24 09:01:08;;;;;;;85.95;26.60;;;10.80;99.90;;;;;;4959212;28;20055;-81
2023/10/24 09:03:42;;;;;;;46.78;21.40;;;10.80;99.90;;;;;;4948361;28;20057;-79
2023/10/24 09:06:08;;;;;;;56.20;23.52;;;10.80;99.90;;;;;;4965055;28;20049;-79
2023/10/24 09:08:37;;;;;;;51.55;22.88;;;10.70;99.90;;;;;;4986144;28;20046;-78
2023/10/24 09:11:03;;;;;;;80.60;27.50;;;10.70;99.90;;;;;;4981027;28;20089;-77
2023/10/24 09:13:32;;;;;;;63.55;24.83;;;10.70;99.90;;;;;;4998377;28;20057;-76
2023/10/24 09:16:08;;;;;;;39.88;21.60;;;10.70;99.90;;;;;;4997249;28;20050;-82
2023/10/24 09:18:38;;;;;;;54.55;23.98;;;10.70;99.90;;;;;;4974497;28;20141;-80
2023/10/24 09:21:06;;;;;;;42.55;21.02;;;10.60;99.90;;;;;;4994167;28;20088;-79
2023/10/24 09:23:35;;;;;;;35.75;20.05;;;10.70;99.90;;;;;;4963611;28;20096;-78
2023/10/24 09:26:08;;;;;;;75.97;25.95;;;10.70;99.90;;;;;;4972730;28;20054;-80
2023/10/24 09:28:34;;;;;;;57.28;23.92;;;10.70;99.90;;;;;;4971113;28;20053;-80
2023/10/24 09:31:00;;;;;;;52.47;22.23;;;10.80;99.90;;;;;;4977827;28;20049;-80
2023/10/24 09:33:30;;;;;;;35.33;20.38;;;10.80;99.90;;;;;;4994005;28;20050;-77
2023/10/24 09:35:56;;;;;;;42.97;19.80;;;10.90;99.90;;;;;;4977177;28;20100;-82
2023/10/24 09:38:24;;;;;;;50.13;22.17;;;11.00;99.90;;;;;;4998248;28;20549;-81
2023/10/24 09:40:52;;;;;;;40.50;20.67;;;11.10;99.90;;;;;;4999769;28;20317;-76
2023/10/24 09:43:26;;;;;;;36.05;19.38;;;11.20;99.90;;;;;;5006575;28;20454;-77
2023/10/24 09:45:52;;;;;;;34.65;18.05;;;11.30;99.90;;;;;;4984396;28;20057;-79
2023/10/24 09:48:19;;;;;;;43.75;20.60;;;11.40;99.90;;;;;;4984931;28;20054;-77
2023/10/24 09:50:46;;;;;;;30.23;17.95;;;11.40;99.90;;;;;;4984438;28;20062;-79
2023/10/24 09:53:13;;;;;;;39.05;20.75;;;11.50;99.90;;;;;;4984655;28;20089;-76
2023/10/24 09:55:41;;;;;;;37.75;19.10;;;11.60;99.90;;;;;;4984637;28;20061;-79
2023/10/24 09:58:09;;;;;;;34.42;18.73;;;11.50;99.90;;;;;;5000787;28;20060;-76
2023/10/24 10:00:36;;;;;;;31.77;17.08;;;11.40;99.90;;;;;;4988244;28;20057;-72
2023/10/24 10:03:03;;;;;;;28.70;15.18;;;11.30;99.90;;;;;;4983323;28;20038;-77
2023/10/24 10:05:30;;;;;;;34.33;16.60;;;11.30;99.90;;;;;;5005015;28;20177;-73
2023/10/24 10:07:59;;;;;;;22.98;13.63;;;11.30;99.90;;;;;;4995683;28;20061;-76
2023/10/24 10:10:25;;;;;;;26.50;14.93;;;11.20;99.90;;;;;;4988872;28;20054;-76
2023/10/24 10:13:00;;;;;;;30.73;15.55;;;11.20;99.90;;;;;;5004483;28;20137;-81
2023/10/24 10:15:49;;;;;;;24.05;14.20;;;11.20;99.90;;;;;;4987536;28;20602;-79
2023/10/24 10:21:47;;;;;;;34.75;16.70;;;11.30;99.90;;;;;;4870906;23;20463;-82
2023/10/24 10:24:50;;;;;;;24.10;14.40;;;11.70;99.90;;;;;;4977516;28;20050;-75
2023/10/24 10:27:19;;;;;;;23.50;13.52;;;11.20;99.90;;;;;;4982666;28;20042;-74
2023/10/24 10:30:07;;;;;;;27.95;14.52;;;11.20;99.90;;;;;;4974999;28;20590;-75
2023/10/24 10:32:42;;;;;;;22.50;13.45;;;11.30;99.90;;;;;;4995931;28;20045;-75
2023/10/24 10:35:07;;;;;;;23.83;13.70;;;11.30;99.90;;;;;;4974118;28;20097;-76
2023/10/24 10:37:34;;;;;;;25.92;14.35;;;11.30;99.90;;;;;;4981070;28;20054;-83
2023/10/24 10:40:15;;;;;;;20.80;13.13;;;11.30;99.90;;;;;;4978849;28;20085;-74
2023/10/24 10:42:48;;;;;;;21.08;13.13;;;11.70;99.90;;;;;;4977679;28;20062;-75
2023/10/24 10:45:24;;;;;;;21.50;13.35;;;11.70;99.90;;;;;;4974158;28;20197;-78
2023/10/24 10:47:54;;;;;;;24.83;14.63;;;11.40;99.90;;;;;;4966898;28;20110;-80
2023/10/24 10:50:37;;;;;;;19.88;12.32;;;11.40;99.90;;;;;;4982771;28;20046;-78
2023/10/24 10:53:30;;;;;;;21.92;13.63;;;11.40;99.90;;;;;;4971526;28;20057;-75
2023/10/24 10:56:18;;;;;;;16.77;11.68;;;8.80;99.90;;;;;;4977260;28;20106;-75
2023/10/24 10:59:06;;;;;;;22.45;13.45;;;11.30;99.90;;;;;;4977964;28;20054;-73
2023/10/24 11:01:41;;;;;;;27.35;13.82;;;11.30;99.90;;;;;;4970006;28;20054;-78
2023/10/24 11:04:17;;;;;;;23.98;13.80;;;11.40;99.90;;;;;;4971205;28;20050;-78
2023/10/24 11:07:03;;;;;;;16.67;11.52;;;11.40;99.90;;;;;;4962662;28;20064;-76
2023/10/24 11:09:37;;;;;;;19.17;12.93;;;11.40;99.90;;;;;;4949668;28;20050;-74
2023/10/24 11:12:21;;;;;;;19.23;12.48;;;11.40;99.90;;;;;;4976817;28;20414;-78
2023/10/24 11:15:22;;;;;;;19.55;12.93;;;11.50;99.90;;;;;;4984814;28;20085;-75
2023/10/24 11:17:48;;;;;;;18.73;12.10;;;11.40;99.90;;;;;;4884214;29;20097;-73
2023/10/24 11:20:14;;;;;;;20.27;13.65;;;11.40;99.90;;;;;;4949565;28;20089;-76
2023/10/24 11:22:40;;;;;;;20.98;13.05;;;11.40;99.90;;;;;;4999417;23;20057;-76
2023/10/24 11:25:13;;;;;;;20.05;12.40;;;11.40;99.90;;;;;;5003013;23;20061;-75
2023/10/24 11:30:37;;;;;;;18.20;12.05;;;11.50;99.90;;;;;;4802664;23;20133;-74
2023/10/24 11:33:03;;;;;;;15.43;11.90;;;11.50;99.90;;;;;;4983756;28;20130;-78
2023/10/24 11:35:28;;;;;;;18.95;11.52;;;11.60;99.90;;;;;;4970271;28;20391;-79
2023/10/24 11:37:54;;;;;;;16.65;12.35;;;11.50;99.90;;;;;;4970072;28;20038;-73
2023/10/24 11:40:20;;;;;;;21.70;12.77;;;11.60;99.90;;;;;;4971285;28;20050;-74
2023/10/24 11:42:45;;;;;;;16.98;12.52;;;12.70;99.90;;;;;;4973169;28;20057;-75
2023/10/24 11:45:11;;;;;;;21.00;13.50;;;11.60;99.90;;;;;;4963034;28;20078;-71
2023/10/24 11:47:37;;;;;;;16.85;11.45;;;11.70;99.90;;;;;;4966655;28;20042;-74
2023/10/24 11:50:03;;;;;;;17.15;12.18;;;11.80;99.90;;;;;;4966805;28;20129;-77
2023/10/24 11:52:29;;;;;;;15.80;12.02;;;11.80;99.90;;;;;;4972654;28;20050;-78
2023/10/24 11:55:00;;;;;;;24.20;13.27;;;11.80;99.90;;;;;;4978646;28;20449;-78
2023/10/24 11:57:26;;;;;;;19.53;12.10;;;11.90;99.90;;;;;;4981559;28;20125;-75
2023/10/24 11:59:53;;;;;;;22.10;13.32;;;11.90;99.90;;;;;;4964209;28;20208;-81
2023/10/24 12:02:21;;;;;;;21.27;12.73;;;12.00;99.90;;;;;;4961105;28;20061;-74
2023/10/24 12:04:50;;;;;;;23.08;14.90;;;12.00;99.90;;;;;;4963271;28;20045;-73
2023/10/24 12:07:16;;;;;;;17.92;13.85;;;12.00;99.90;;;;;;4971212;28;20137;-75
2023/10/24 12:09:42;;;;;;;21.35;14.88;;;12.00;99.90;;;;;;4965364;28;20112;-74
2023/10/24 12:12:13;;;;;;;25.30;15.55;;;12.00;99.90;;;;;;4958992;28;20054;-78
2023/10/24 12:14:41;;;;;;;22.25;15.07;;;12.10;99.90;;;;;;4962757;28;20042;-78
2023/10/24 12:17:08;;;;;;;19.95;14.70;;;12.10;99.90;;;;;;4959387;28;20085;-74
2023/10/24 12:19:34;;;;;;;19.52;14.48;;;12.30;99.90;;;;;;4976349;28;20154;-71
2023/10/24 12:22:00;;;;;;;19.98;14.13;;;12.50;99.90;;;;;;4963512;28;20050;-74
2023/10/24 12:24:26;;;;;;;18.25;14.45;;;12.70;99.90;;;;;;4964274;28;20061;-72
2023/10/24 12:26:51;;;;;;;21.52;15.25;;;12.80;99.90;;;;;;4958264;28;20050;-78
2023/10/24 12:29:17;;;;;;;22.65;15.35;;;12.90;99.90;;;;;;4968586;28;20501;-76
2023/10/24 12:31:45;;;;;;;19.92;15.02;;;12.90;99.90;;;;;;4969466;28;20277;-73
2023/10/24 12:34:12;;;;;;;16.98;13.57;;;12.90;99.90;;;;;;4958512;28;20380;-74
2023/10/24 12:36:38;;;;;;;20.27;14.55;;;12.90;99.90;;;;;;4959147;28;20046;-76